sensor_id;sensor_type;location;lat;lon;timestamp;P1;durP1;ratioP1;P2;durP2;ratioP2
76210;SDS011;65003;49.518;11.280;2022-11-20T00:03:30;26.47;;;14.43;;
76210;SDS011;65003;49.518;11.280;2022-11-20T00:05:59;32.30;;;16.33;;
76210;SDS011;65003;49.518;11.280;2022-11-20T00:08:25;21.97;;;12.97;;
76210;SDS011;65003;49.518;11.280;2022-11-20T00:10:52;19.50;;;13.03;;
76210;SDS011;65003;49.518;11.280;2022-11-20T00:13:18;23.23;;;12.90;;
76210;SDS011;65003;49.518;11.280;2022-11-20T00:15:45;45.10;;;20.80;;
76210;SDS011;65003;49.518;11.280;2022-11-20T00:18:12;38.10;;;19.00;;
76210;SDS011;65003;49.518;11.280;2022-11-20T00:20:38;25.87;;;14.53;;
76210;SDS011;65003;49.518;11.280;2022-11-20T00:23:05;23.30;;;13.60;;
76210;SDS011;65003;49.518;11.280;2022-11-20T00:25:33;24.00;;;15.23;;
76210;SDS011;65003;49.518;11.280;2022-11-20T00:27:58;23.20;;;13.33;;
76210;SDS011;65003;49.518;11.280;2022-11-20T00:30:24;24.03;;;14.07;;
76210;SDS011;65003;49.518;11.280;2022-11-20T00:32:51;24.17;;;14.63;;
76210;SDS011;65003;49.518;11.280;2022-11-20T00:35:18;36.53;;;17.87;;
76210;SDS011;65003;49.518;11.280;2022-11-20T00:37:44;50.03;;;20.50;;
76210;SDS011;65003;49.518;11.280;2022-11-20T00:40:11;35.97;;;17.80;;
76210;SDS011;65003;49.518;11.280;2022-11-20T00:42:38;99.03;;;36.03;;
76210;SDS011;65003;49.518;11.280;2022-11-20T00:45:05;26.23;;;15.37;;
76210;SDS011;65003;49.518;11.280;2022-11-20T00:47:31;24.70;;;15.30;;
76210;SDS011;65003;49.518;11.280;2022-11-20T00:49:58;23.30;;;14.20;;
76210;SDS011;65003;49.518;11.280;2022-11-20T00:52:25;25.80;;;13.63;;
76210;SDS011;65003;49.518;11.280;2022-11-20T00:54:51;24.97;;;13.10;;
76210;SDS011;65003;49.518;11.280;2022-11-20T00:57:18;23.33;;;15.50;;
76210;SDS011;65003;49.518;11.280;2022-11-20T00:59:44;22.30;;;14.37;;
76210;SDS011;65003;49.518;11.280;2022-11-20T01:02:11;21.63;;;12.63;;
76210;SDS011;65003;49.518;11.280;2022-11-20T01:04:37;22.80;;;12.83;;
76210;SDS011;65003;49.518;11.280;2022-11-20T01:07:04;26.50;;;15.40;;
76210;SDS011;65003;49.518;11.280;2022-11-20T01:09:31;24.10;;;14.73;;
76210;SDS011;65003;49.518;11.280;2022-11-20T01:11:57;24.53;;;15.40;;
76210;SDS011;65003;49.518;11.280;2022-11-20T01:14:24;25.57;;;15.07;;
76210;SDS011;65003;49.518;11.280;2022-11-20T01:16:51;24.93;;;13.80;;
76210;SDS011;65003;49.518;11.280;2022-11-20T01:19:19;22.37;;;13.13;;
76210;SDS011;65003;49.518;11.280;2022-11-20T01:21:44;23.07;;;13.60;;
76210;SDS011;65003;49.518;11.280;2022-11-20T01:24:11;24.70;;;15.50;;
76210;SDS011;65003;49.518;11.280;2022-11-20T01:26:37;21.00;;;12.43;;
76210;SDS011;65003;49.518;11.280;2022-11-20T01:29:03;25.90;;;13.97;;
76210;SDS011;65003;49.518;11.280;2022-11-20T01:31:31;25.53;;;13.67;;
76210;SDS011;65003;49.518;11.280;2022-11-20T01:34:00;24.53;;;14.20;;
76210;SDS011;65003;49.518;11.280;2022-11-20T01:36:27;21.47;;;13.80;;
76210;SDS011;65003;49.518;11.280;2022-11-20T01:38:53;22.80;;;14.20;;
76210;SDS011;65003;49.518;11.280;2022-11-20T01:41:19;25.17;;;14.73;;
76210;SDS011;65003;49.518;11.280;2022-11-20T01:43:51;22.03;;;12.80;;
76210;SDS011;65003;49.518;11.280;2022-11-20T01:46:18;21.47;;;14.03;;
76210;SDS011;65003;49.518;11.280;2022-11-20T01:48:47;23.00;;;13.60;;
76210;SDS011;65003;49.518;11.280;2022-11-20T01:51:13;25.83;;;14.17;;
76210;SDS011;65003;49.518;11.280;2022-11-20T01:53:38;24.20;;;13.50;;
76210;SDS011;65003;49.518;11.280;2022-11-20T01:56:05;25.60;;;15.23;;
76210;SDS011;65003;49.518;11.280;2022-11-20T01:58:33;23.90;;;14.40;;
76210;SDS011;65003;49.518;11.280;2022-11-20T02:00:58;23.47;;;13.97;;
76210;SDS011;65003;49.518;11.280;2022-11-20T02:03:25;21.77;;;13.20;;
76210;SDS011;65003;49.518;11.280;2022-11-20T02:05:55;23.73;;;12.93;;
76210;SDS011;65003;49.518;11.280;2022-11-20T02:08:21;22.87;;;14.07;;
76210;SDS011;65003;49.518;11.280;2022-11-20T02:10:48;22.47;;;14.47;;
76210;SDS011;65003;49.518;11.280;2022-11-20T02:13:14;25.57;;;14.23;;
76210;SDS011;65003;49.518;11.280;2022-11-20T02:15:46;26.10;;;14.40;;
76210;SDS011;65003;49.518;11.280;2022-11-20T02:18:14;25.33;;;13.87;;
76210;SDS011;65003;49.518;11.280;2022-11-20T02:20:41;23.60;;;14.60;;
76210;SDS011;65003;49.518;11.280;2022-11-20T02:23:12;23.97;;;13.60;;
76210;SDS011;65003;49.518;11.280;2022-11-20T02:25:38;22.77;;;12.73;;
76210;SDS011;65003;49.518;11.280;2022-11-20T02:28:05;24.57;;;14.13;;
76210;SDS011;65003;49.518;11.280;2022-11-20T02:30:31;23.67;;;14.70;;
76210;SDS011;65003;49.518;11.280;2022-11-20T02:32:58;25.60;;;13.97;;
76210;SDS011;65003;49.518;11.280;2022-11-20T02:35:41;22.70;;;14.03;;
76210;SDS011;65003;49.518;11.280;2022-11-20T02:38:06;21.80;;;13.97;;
76210;SDS011;65003;49.518;11.280;2022-11-20T02:40:33;23.73;;;15.27;;
76210;SDS011;65003;49.518;11.280;2022-11-20T02:42:59;21.70;;;13.63;;
76210;SDS011;65003;49.518;11.280;2022-11-20T02:45:26;23.23;;;14.10;;
76210;SDS011;65003;49.518;11.280;2022-11-20T02:47:52;27.60;;;16.40;;
76210;SDS011;65003;49.518;11.280;2022-11-20T02:50:19;22.93;;;13.80;;
76210;SDS011;65003;49.518;11.280;2022-11-20T02:52:45;22.03;;;13.47;;
76210;SDS011;65003;49.518;11.280;2022-11-20T02:55:12;22.93;;;13.53;;
76210;SDS011;65003;49.518;11.280;2022-11-20T02:57:39;23.60;;;13.83;;
76210;SDS011;65003;49.518;11.280;2022-11-20T03:00:06;25.67;;;15.20;;
76210;SDS011;65003;49.518;11.280;2022-11-20T03:02:33;23.17;;;13.87;;
76210;SDS011;65003;49.518;11.280;2022-11-20T03:04:59;24.37;;;14.13;;
76210;SDS011;65003;49.518;11.280;2022-11-20T03:07:26;23.73;;;14.13;;
76210;SDS011;65003;49.518;11.280;2022-11-20T03:09:53;24.23;;;13.83;;
76210;SDS011;65003;49.518;11.280;2022-11-20T03:12:19;23.93;;;14.90;;
76210;SDS011;65003;49.518;11.280;2022-11-20T03:14:46;25.93;;;14.17;;
76210;SDS011;65003;49.518;11.280;2022-11-20T03:17:12;26.70;;;15.63;;
76210;SDS011;65003;49.518;11.280;2022-11-20T03:19:39;28.13;;;15.53;;
76210;SDS011;65003;49.518;11.280;2022-11-20T03:22:05;26.10;;;15.83;;
76210;SDS011;65003;49.518;11.280;2022-11-20T03:24:32;25.23;;;15.23;;
76210;SDS011;65003;49.518;11.280;2022-11-20T03:26:59;23.73;;;14.43;;
76210;SDS011;65003;49.518;11.280;2022-11-20T03:29:25;24.30;;;13.87;;
76210;SDS011;65003;49.518;11.280;2022-11-20T03:31:52;22.93;;;13.73;;
76210;SDS011;65003;49.518;11.280;2022-11-20T03:34:18;23.80;;;14.97;;
76210;SDS011;65003;49.518;11.280;2022-11-20T03:36:45;24.53;;;13.43;;
76210;SDS011;65003;49.518;11.280;2022-11-20T03:39:12;24.00;;;13.77;;
76210;SDS011;65003;49.518;11.280;2022-11-20T03:41:39;23.27;;;14.07;;
76210;SDS011;65003;49.518;11.280;2022-11-20T03:44:05;22.97;;;13.97;;
76210;SDS011;65003;49.518;11.280;2022-11-20T03:46:31;24.00;;;12.53;;
76210;SDS011;65003;49.518;11.280;2022-11-20T03:48:58;23.77;;;14.03;;
76210;SDS011;65003;49.518;11.280;2022-11-20T03:51:25;24.43;;;14.67;;
76210;SDS011;65003;49.518;11.280;2022-11-20T03:53:54;22.27;;;13.13;;
76210;SDS011;65003;49.518;11.280;2022-11-20T03:56:21;24.67;;;14.43;;
76210;SDS011;65003;49.518;11.280;2022-11-20T03:58:46;27.43;;;14.73;;
76210;SDS011;65003;49.518;11.280;2022-11-20T04:01:14;26.13;;;14.90;;
76210;SDS011;65003;49.518;11.280;2022-11-20T04:03:40;24.83;;;15.23;;
76210;SDS011;65003;49.518;11.280;2022-11-20T04:06:07;23.77;;;14.07;;
76210;SDS011;65003;49.518;11.280;2022-11-20T04:08:33;25.07;;;14.47;;
76210;SDS011;65003;49.518;11.280;2022-11-20T04:11:07;24.33;;;14.67;;
76210;SDS011;65003;49.518;11.280;2022-11-20T04:13:35;23.60;;;13.60;;
76210;SDS011;65003;49.518;11.280;2022-11-20T04:16:02;25.00;;;15.50;;
76210;SDS011;65003;49.518;11.280;2022-11-20T04:18:28;25.63;;;14.27;;
76210;SDS011;65003;49.518;11.280;2022-11-20T04:20:56;27.47;;;15.23;;
76210;SDS011;65003;49.518;11.280;2022-11-20T04:23:21;25.27;;;14.30;;
76210;SDS011;65003;49.518;11.280;2022-11-20T04:25:48;25.00;;;14.70;;
76210;SDS011;65003;49.518;11.280;2022-11-20T04:28:14;25.10;;;14.50;;
76210;SDS011;65003;49.518;11.280;2022-11-20T04:30:41;26.13;;;15.13;;
76210;SDS011;65003;49.518;11.280;2022-11-20T04:33:08;28.27;;;14.83;;
76210;SDS011;65003;49.518;11.280;2022-11-20T04:35:35;26.87;;;14.47;;
76210;SDS011;65003;49.518;11.280;2022-11-20T04:38:01;28.03;;;15.00;;
76210;SDS011;65003;49.518;11.280;2022-11-20T04:40:28;20.83;;;13.73;;
76210;SDS011;65003;49.518;11.280;2022-11-20T04:42:54;25.97;;;15.17;;
76210;SDS011;65003;49.518;11.280;2022-11-20T04:45:22;28.60;;;14.23;;
76210;SDS011;65003;49.518;11.280;2022-11-20T04:47:47;28.07;;;15.00;;
76210;SDS011;65003;49.518;11.280;2022-11-20T04:50:14;25.27;;;14.60;;
76210;SDS011;65003;49.518;11.280;2022-11-20T04:52:40;26.73;;;14.67;;
76210;SDS011;65003;49.518;11.280;2022-11-20T04:55:07;28.47;;;15.27;;
76210;SDS011;65003;49.518;11.280;2022-11-20T04:57:33;25.10;;;15.37;;
76210;SDS011;65003;49.518;11.280;2022-11-20T05:00:00;28.13;;;15.80;;
76210;SDS011;65003;49.518;11.280;2022-11-20T05:02:27;28.93;;;14.97;;
76210;SDS011;65003;49.518;11.280;2022-11-20T05:04:53;25.23;;;13.97;;
76210;SDS011;65003;49.518;11.280;2022-11-20T05:07:20;25.00;;;15.93;;
76210;SDS011;65003;49.518;11.280;2022-11-20T05:09:46;26.17;;;15.40;;
76210;SDS011;65003;49.518;11.280;2022-11-20T05:12:13;24.27;;;14.13;;
76210;SDS011;65003;49.518;11.280;2022-11-20T05:14:40;24.27;;;15.13;;
76210;SDS011;65003;49.518;11.280;2022-11-20T05:17:09;25.43;;;13.93;;
76210;SDS011;65003;49.518;11.280;2022-11-20T05:19:33;28.77;;;16.27;;
76210;SDS011;65003;49.518;11.280;2022-11-20T05:21:59;26.60;;;15.30;;
76210;SDS011;65003;49.518;11.280;2022-11-20T05:24:26;23.20;;;14.60;;
76210;SDS011;65003;49.518;11.280;2022-11-20T05:26:52;28.20;;;14.80;;
76210;SDS011;65003;49.518;11.280;2022-11-20T05:29:19;27.73;;;15.23;;
76210;SDS011;65003;49.518;11.280;2022-11-20T05:31:46;29.30;;;15.60;;
76210;SDS011;65003;49.518;11.280;2022-11-20T05:34:12;26.00;;;14.90;;
76210;SDS011;65003;49.518;11.280;2022-11-20T05:36:39;25.63;;;15.80;;
76210;SDS011;65003;49.518;11.280;2022-11-20T05:39:05;26.23;;;15.13;;
76210;SDS011;65003;49.518;11.280;2022-11-20T05:41:32;24.83;;;15.53;;
76210;SDS011;65003;49.518;11.280;2022-11-20T05:43:59;25.47;;;15.03;;
76210;SDS011;65003;49.518;11.280;2022-11-20T05:46:25;28.13;;;15.77;;
76210;SDS011;65003;49.518;11.280;2022-11-20T05:48:52;25.97;;;15.47;;
76210;SDS011;65003;49.518;11.280;2022-11-20T05:51:19;25.17;;;14.47;;
76210;SDS011;65003;49.518;11.280;2022-11-20T05:53:45;26.97;;;15.03;;
76210;SDS011;65003;49.518;11.280;2022-11-20T05:56:14;25.67;;;15.57;;
76210;SDS011;65003;49.518;11.280;2022-11-20T05:58:39;24.63;;;15.07;;
76210;SDS011;65003;49.518;11.280;2022-11-20T06:01:22;29.57;;;17.10;;
76210;SDS011;65003;49.518;11.280;2022-11-20T06:03:48;28.43;;;15.67;;
76210;SDS011;65003;49.518;11.280;2022-11-20T06:06:15;32.80;;;17.50;;
76210;SDS011;65003;49.518;11.280;2022-11-20T06:08:41;28.83;;;16.40;;
76210;SDS011;65003;49.518;11.280;2022-11-20T06:11:08;27.03;;;15.87;;
76210;SDS011;65003;49.518;11.280;2022-11-20T06:13:34;26.87;;;15.33;;
76210;SDS011;65003;49.518;11.280;2022-11-20T06:16:01;27.83;;;16.03;;
76210;SDS011;65003;49.518;11.280;2022-11-20T06:18:28;27.40;;;15.47;;
76210;SDS011;65003;49.518;11.280;2022-11-20T06:20:59;30.67;;;16.03;;
76210;SDS011;65003;49.518;11.280;2022-11-20T06:23:28;24.20;;;14.83;;
76210;SDS011;65003;49.518;11.280;2022-11-20T06:25:54;26.70;;;15.30;;
76210;SDS011;65003;49.518;11.280;2022-11-20T06:28:20;25.50;;;15.33;;
76210;SDS011;65003;49.518;11.280;2022-11-20T06:30:47;28.13;;;15.57;;
76210;SDS011;65003;49.518;11.280;2022-11-20T06:33:13;28.77;;;16.10;;
76210;SDS011;65003;49.518;11.280;2022-11-20T06:35:40;26.60;;;14.43;;
76210;SDS011;65003;49.518;11.280;2022-11-20T06:38:06;26.03;;;15.07;;
76210;SDS011;65003;49.518;11.280;2022-11-20T06:40:33;28.83;;;15.70;;
76210;SDS011;65003;49.518;11.280;2022-11-20T06:43:00;24.77;;;15.07;;
76210;SDS011;65003;49.518;11.280;2022-11-20T06:45:26;25.50;;;14.57;;
76210;SDS011;65003;49.518;11.280;2022-11-20T06:47:53;29.47;;;16.47;;
76210;SDS011;65003;49.518;11.280;2022-11-20T06:50:19;25.63;;;14.77;;
76210;SDS011;65003;49.518;11.280;2022-11-20T06:52:46;27.47;;;15.60;;
76210;SDS011;65003;49.518;11.280;2022-11-20T06:55:13;24.00;;;14.63;;
76210;SDS011;65003;49.518;11.280;2022-11-20T06:57:39;25.93;;;14.20;;
76210;SDS011;65003;49.518;11.280;2022-11-20T07:00:06;25.57;;;15.03;;
76210;SDS011;65003;49.518;11.280;2022-11-20T07:02:33;24.83;;;14.03;;
76210;SDS011;65003;49.518;11.280;2022-11-20T07:04:59;25.23;;;14.03;;
76210;SDS011;65003;49.518;11.280;2022-11-20T07:07:26;26.00;;;14.97;;
76210;SDS011;65003;49.518;11.280;2022-11-20T07:09:53;26.40;;;15.00;;
76210;SDS011;65003;49.518;11.280;2022-11-20T07:12:19;26.63;;;15.70;;
76210;SDS011;65003;49.518;11.280;2022-11-20T07:14:46;26.70;;;14.87;;
76210;SDS011;65003;49.518;11.280;2022-11-20T07:17:12;25.80;;;15.07;;
76210;SDS011;65003;49.518;11.280;2022-11-20T07:19:42;23.70;;;14.57;;
76210;SDS011;65003;49.518;11.280;2022-11-20T07:22:09;23.17;;;14.50;;
76210;SDS011;65003;49.518;11.280;2022-11-20T07:24:35;23.00;;;14.13;;
76210;SDS011;65003;49.518;11.280;2022-11-20T07:27:02;23.87;;;14.47;;
76210;SDS011;65003;49.518;11.280;2022-11-20T07:29:28;24.70;;;14.60;;
76210;SDS011;65003;49.518;11.280;2022-11-20T07:31:55;24.37;;;13.93;;
76210;SDS011;65003;49.518;11.280;2022-11-20T07:34:22;22.43;;;12.97;;
76210;SDS011;65003;49.518;11.280;2022-11-20T07:36:48;25.10;;;14.13;;
76210;SDS011;65003;49.518;11.280;2022-11-20T07:39:15;24.77;;;15.03;;
76210;SDS011;65003;49.518;11.280;2022-11-20T07:41:41;25.23;;;17.33;;
76210;SDS011;65003;49.518;11.280;2022-11-20T07:44:08;26.03;;;15.53;;
76210;SDS011;65003;49.518;11.280;2022-11-20T07:46:35;25.60;;;14.83;;
76210;SDS011;65003;49.518;11.280;2022-11-20T07:49:01;26.10;;;16.40;;
76210;SDS011;65003;49.518;11.280;2022-11-20T07:51:28;27.23;;;17.67;;
76210;SDS011;65003;49.518;11.280;2022-11-20T07:53:54;27.93;;;16.97;;
76210;SDS011;65003;49.518;11.280;2022-11-20T07:56:21;34.77;;;21.83;;
76210;SDS011;65003;49.518;11.280;2022-11-20T07:58:47;35.37;;;21.10;;
76210;SDS011;65003;49.518;11.280;2022-11-20T08:01:14;27.93;;;17.93;;
76210;SDS011;65003;49.518;11.280;2022-11-20T08:03:41;26.60;;;15.40;;
76210;SDS011;65003;49.518;11.280;2022-11-20T08:06:07;25.77;;;15.80;;
76210;SDS011;65003;49.518;11.280;2022-11-20T08:08:34;29.63;;;17.70;;
76210;SDS011;65003;49.518;11.280;2022-11-20T08:11:00;27.33;;;16.70;;
76210;SDS011;65003;49.518;11.280;2022-11-20T08:13:33;28.87;;;16.47;;
76210;SDS011;65003;49.518;11.280;2022-11-20T08:16:05;26.30;;;15.63;;
76210;SDS011;65003;49.518;11.280;2022-11-20T08:18:32;32.07;;;21.13;;
76210;SDS011;65003;49.518;11.280;2022-11-20T08:21:02;40.67;;;24.10;;
76210;SDS011;65003;49.518;11.280;2022-11-20T08:23:28;37.07;;;21.97;;
76210;SDS011;65003;49.518;11.280;2022-11-20T08:25:54;33.57;;;20.03;;
76210;SDS011;65003;49.518;11.280;2022-11-20T08:28:21;25.40;;;15.30;;
76210;SDS011;65003;49.518;11.280;2022-11-20T08:30:48;29.23;;;17.53;;
76210;SDS011;65003;49.518;11.280;2022-11-20T08:33:14;26.97;;;16.83;;
76210;SDS011;65003;49.518;11.280;2022-11-20T08:35:41;29.53;;;17.83;;
76210;SDS011;65003;49.518;11.280;2022-11-20T08:38:08;29.90;;;17.30;;
76210;SDS011;65003;49.518;11.280;2022-11-20T08:40:34;28.03;;;16.47;;
76210;SDS011;65003;49.518;11.280;2022-11-20T08:43:00;25.77;;;16.63;;
76210;SDS011;65003;49.518;11.280;2022-11-20T08:45:27;28.13;;;17.07;;
76210;SDS011;65003;49.518;11.280;2022-11-20T08:47:59;26.97;;;16.63;;
76210;SDS011;65003;49.518;11.280;2022-11-20T08:50:20;29.93;;;16.10;;
76210;SDS011;65003;49.518;11.280;2022-11-20T08:52:47;26.37;;;16.60;;
76210;SDS011;65003;49.518;11.280;2022-11-20T08:55:13;26.13;;;15.53;;
76210;SDS011;65003;49.518;11.280;2022-11-20T08:57:40;33.03;;;18.83;;
76210;SDS011;65003;49.518;11.280;2022-11-20T09:00:07;32.80;;;18.57;;
76210;SDS011;65003;49.518;11.280;2022-11-20T09:02:34;29.53;;;15.73;;
76210;SDS011;65003;49.518;11.280;2022-11-20T09:05:00;27.27;;;16.10;;
76210;SDS011;65003;49.518;11.280;2022-11-20T09:07:27;26.47;;;15.20;;
76210;SDS011;65003;49.518;11.280;2022-11-20T09:09:53;28.63;;;15.97;;
76210;SDS011;65003;49.518;11.280;2022-11-20T09:12:20;26.27;;;15.03;;
76210;SDS011;65003;49.518;11.280;2022-11-20T09:14:47;26.70;;;15.20;;
76210;SDS011;65003;49.518;11.280;2022-11-20T09:17:13;28.13;;;15.20;;
76210;SDS011;65003;49.518;11.280;2022-11-20T09:19:40;26.37;;;15.03;;
76210;SDS011;65003;49.518;11.280;2022-11-20T09:22:06;30.63;;;17.93;;
76210;SDS011;65003;49.518;11.280;2022-11-20T09:24:33;28.10;;;17.13;;
76210;SDS011;65003;49.518;11.280;2022-11-20T09:27:03;31.53;;;17.40;;
76210;SDS011;65003;49.518;11.280;2022-11-20T09:29:29;32.70;;;17.43;;
76210;SDS011;65003;49.518;11.280;2022-11-20T09:31:56;25.13;;;15.97;;
76210;SDS011;65003;49.518;11.280;2022-11-20T09:34:22;28.83;;;17.13;;
76210;SDS011;65003;49.518;11.280;2022-11-20T09:36:49;28.87;;;16.67;;
76210;SDS011;65003;49.518;11.280;2022-11-20T09:39:15;24.03;;;15.90;;
76210;SDS011;65003;49.518;11.280;2022-11-20T09:45:50;32.87;;;19.70;;
76210;SDS011;65003;49.518;11.280;2022-11-20T09:50:43;29.43;;;17.43;;
76210;SDS011;65003;49.518;11.280;2022-11-20T09:53:19;48.00;;;26.13;;
76210;SDS011;65003;49.518;11.280;2022-11-20T09:55:48;47.33;;;26.43;;
76210;SDS011;65003;49.518;11.280;2022-11-20T09:58:23;39.03;;;24.30;;
76210;SDS011;65003;49.518;11.280;2022-11-20T10:00:45;41.20;;;24.27;;
76210;SDS011;65003;49.518;11.280;2022-11-20T10:03:13;45.07;;;26.67;;
76210;SDS011;65003;49.518;11.280;2022-11-20T10:05:41;40.33;;;24.67;;
76210;SDS011;65003;49.518;11.280;2022-11-20T10:10:46;31.93;;;18.70;;
76210;SDS011;65003;49.518;11.280;2022-11-20T10:13:19;23.80;;;14.73;;
76210;SDS011;65003;49.518;11.280;2022-11-20T10:16:17;21.87;;;13.63;;
76210;SDS011;65003;49.518;11.280;2022-11-20T10:18:44;23.60;;;14.00;;
76210;SDS011;65003;49.518;11.280;2022-11-20T10:24:02;31.83;;;15.30;;
76210;SDS011;65003;49.518;11.280;2022-11-20T10:26:28;23.43;;;14.50;;
76210;SDS011;65003;49.518;11.280;2022-11-20T10:29:01;20.23;;;12.43;;
76210;SDS011;65003;49.518;11.280;2022-11-20T10:31:34;19.43;;;12.87;;
76210;SDS011;65003;49.518;11.280;2022-11-20T10:34:06;20.97;;;13.70;;
76210;SDS011;65003;49.518;11.280;2022-11-20T10:36:34;21.17;;;13.80;;
76210;SDS011;65003;49.518;11.280;2022-11-20T10:39:01;20.27;;;13.57;;
76210;SDS011;65003;49.518;11.280;2022-11-20T10:41:28;20.80;;;13.53;;
76210;SDS011;65003;49.518;11.280;2022-11-20T10:43:59;21.70;;;14.83;;
76210;SDS011;65003;49.518;11.280;2022-11-20T10:46:33;19.20;;;12.58;;
76210;SDS011;65003;49.518;11.280;2022-11-20T10:48:59;17.43;;;12.70;;
76210;SDS011;65003;49.518;11.280;2022-11-20T10:51:31;20.30;;;13.10;;
76210;SDS011;65003;49.518;11.280;2022-11-20T10:54:12;18.03;;;13.43;;
76210;SDS011;65003;49.518;11.280;2022-11-20T10:56:56;19.03;;;12.97;;
76210;SDS011;65003;49.518;11.280;2022-11-20T10:59:41;18.50;;;12.27;;
76210;SDS011;65003;49.518;11.280;2022-11-20T11:04:57;17.20;;;12.40;;
76210;SDS011;65003;49.518;11.280;2022-11-20T11:07:24;17.47;;;11.50;;
76210;SDS011;65003;49.518;11.280;2022-11-20T11:10:14;16.00;;;11.10;;
76210;SDS011;65003;49.518;11.280;2022-11-20T11:12:47;17.93;;;11.07;;
76210;SDS011;65003;49.518;11.280;2022-11-20T11:15:15;19.90;;;13.40;;
76210;SDS011;65003;49.518;11.280;2022-11-20T11:17:46;18.97;;;11.63;;
76210;SDS011;65003;49.518;11.280;2022-11-20T11:20:15;19.67;;;12.73;;
76210;SDS011;65003;49.518;11.280;2022-11-20T11:22:53;16.40;;;10.50;;
76210;SDS011;65003;49.518;11.280;2022-11-20T11:25:23;16.53;;;10.50;;
76210;SDS011;65003;49.518;11.280;2022-11-20T11:27:50;35.03;;;18.67;;
76210;SDS011;65003;49.518;11.280;2022-11-20T11:30:17;41.23;;;26.50;;
76210;SDS011;65003;49.518;11.280;2022-11-20T11:32:43;36.10;;;23.73;;
76210;SDS011;65003;49.518;11.280;2022-11-20T11:35:19;24.20;;;17.03;;
76210;SDS011;65003;49.518;11.280;2022-11-20T11:37:44;28.07;;;19.20;;
76210;SDS011;65003;49.518;11.280;2022-11-20T11:40:10;12.60;;;9.73;;
76210;SDS011;65003;49.518;11.280;2022-11-20T11:42:42;13.97;;;10.17;;
76210;SDS011;65003;49.518;11.280;2022-11-20T11:45:11;11.70;;;7.47;;
76210;SDS011;65003;49.518;11.280;2022-11-20T11:47:43;9.47;;;6.70;;
76210;SDS011;65003;49.518;11.280;2022-11-20T11:50:18;10.97;;;8.00;;
76210;SDS011;65003;49.518;11.280;2022-11-20T11:55:33;29.80;;;22.33;;
76210;SDS011;65003;49.518;11.280;2022-11-20T11:58:09;16.57;;;12.27;;
76210;SDS011;65003;49.518;11.280;2022-11-20T12:00:39;13.53;;;10.27;;
76210;SDS011;65003;49.518;11.280;2022-11-20T12:03:07;8.90;;;6.37;;
76210;SDS011;65003;49.518;11.280;2022-11-20T12:05:40;7.93;;;6.20;;
76210;SDS011;65003;49.518;11.280;2022-11-20T12:08:10;6.70;;;5.00;;
76210;SDS011;65003;49.518;11.280;2022-11-20T12:10:47;5.23;;;4.67;;
76210;SDS011;65003;49.518;11.280;2022-11-20T12:13:20;8.67;;;6.07;;
76210;SDS011;65003;49.518;11.280;2022-11-20T12:15:44;6.83;;;5.47;;
76210;SDS011;65003;49.518;11.280;2022-11-20T12:18:14;7.50;;;5.33;;
76210;SDS011;65003;49.518;11.280;2022-11-20T12:20:41;7.83;;;5.23;;
76210;SDS011;65003;49.518;11.280;2022-11-20T12:23:09;6.47;;;5.37;;
76210;SDS011;65003;49.518;11.280;2022-11-20T12:25:35;7.40;;;5.67;;
76210;SDS011;65003;49.518;11.280;2022-11-20T12:28:05;9.13;;;5.70;;
76210;SDS011;65003;49.518;11.280;2022-11-20T12:30:35;8.33;;;5.73;;
76210;SDS011;65003;49.518;11.280;2022-11-20T12:33:09;8.67;;;6.17;;
76210;SDS011;65003;49.518;11.280;2022-11-20T12:35:58;8.03;;;5.33;;
76210;SDS011;65003;49.518;11.280;2022-11-20T12:38:29;8.53;;;5.77;;
76210;SDS011;65003;49.518;11.280;2022-11-20T12:41:12;6.80;;;5.27;;
76210;SDS011;65003;49.518;11.280;2022-11-20T12:44:13;9.33;;;6.13;;
76210;SDS011;65003;49.518;11.280;2022-11-20T12:47:03;8.53;;;6.50;;
76210;SDS011;65003;49.518;11.280;2022-11-20T12:49:41;9.93;;;6.93;;
76210;SDS011;65003;49.518;11.280;2022-11-20T12:55:02;9.83;;;7.30;;
76210;SDS011;65003;49.518;11.280;2022-11-20T12:57:37;11.90;;;6.47;;
76210;SDS011;65003;49.518;11.280;2022-11-20T13:00:07;6.60;;;5.30;;
76210;SDS011;65003;49.518;11.280;2022-11-20T13:02:50;7.10;;;4.80;;
76210;SDS011;65003;49.518;11.280;2022-11-20T13:05:27;5.50;;;4.57;;
76210;SDS011;65003;49.518;11.280;2022-11-20T13:07:53;9.23;;;5.63;;
76210;SDS011;65003;49.518;11.280;2022-11-20T13:13:02;6.87;;;5.33;;
76210;SDS011;65003;49.518;11.280;2022-11-20T13:15:35;9.23;;;5.73;;
76210;SDS011;65003;49.518;11.280;2022-11-20T13:18:00;7.87;;;5.23;;
76210;SDS011;65003;49.518;11.280;2022-11-20T13:20:26;9.40;;;6.30;;
76210;SDS011;65003;49.518;11.280;2022-11-20T13:22:54;9.13;;;6.67;;
76210;SDS011;65003;49.518;11.280;2022-11-20T13:25:22;7.13;;;5.40;;
76210;SDS011;65003;49.518;11.280;2022-11-20T13:27:56;10.60;;;6.13;;
76210;SDS011;65003;49.518;11.280;2022-11-20T13:30:23;8.60;;;6.00;;
76210;SDS011;65003;49.518;11.280;2022-11-20T13:32:56;10.27;;;6.23;;
76210;SDS011;65003;49.518;11.280;2022-11-20T13:35:31;7.73;;;5.60;;
76210;SDS011;65003;49.518;11.280;2022-11-20T13:38:01;8.10;;;6.07;;
76210;SDS011;65003;49.518;11.280;2022-11-20T13:43:26;7.30;;;5.90;;
76210;SDS011;65003;49.518;11.280;2022-11-20T13:45:55;8.50;;;5.93;;
76210;SDS011;65003;49.518;11.280;2022-11-20T13:48:32;9.33;;;6.43;;
76210;SDS011;65003;49.518;11.280;2022-11-20T13:51:36;9.20;;;6.47;;
76210;SDS011;65003;49.518;11.280;2022-11-20T13:53:46;13.77;;;9.03;;
76210;SDS011;65003;49.518;11.280;2022-11-20T13:59:05;16.70;;;10.77;;
76210;SDS011;65003;49.518;11.280;2022-11-20T14:01:44;13.43;;;9.70;;
76210;SDS011;65003;49.518;11.280;2022-11-20T14:04:12;12.77;;;10.00;;
76210;SDS011;65003;49.518;11.280;2022-11-20T14:06:41;14.23;;;9.77;;
76210;SDS011;65003;49.518;11.280;2022-11-20T14:09:10;13.23;;;9.83;;
76210;SDS011;65003;49.518;11.280;2022-11-20T14:11:45;12.00;;;8.70;;
76210;SDS011;65003;49.518;11.280;2022-11-20T14:14:12;13.73;;;8.97;;
76210;SDS011;65003;49.518;11.280;2022-11-20T14:16:37;10.20;;;8.03;;
76210;SDS011;65003;49.518;11.280;2022-11-20T14:21:41;12.90;;;7.77;;
76210;SDS011;65003;49.518;11.280;2022-11-20T14:24:10;9.73;;;7.23;;
76210;SDS011;65003;49.518;11.280;2022-11-20T14:26:35;10.57;;;6.93;;
76210;SDS011;65003;49.518;11.280;2022-11-20T14:29:01;10.87;;;7.70;;
76210;SDS011;65003;49.518;11.280;2022-11-20T14:31:28;10.97;;;7.37;;
76210;SDS011;65003;49.518;11.280;2022-11-20T14:33:54;11.73;;;8.37;;
76210;SDS011;65003;49.518;11.280;2022-11-20T14:36:22;14.37;;;9.10;;
76210;SDS011;65003;49.518;11.280;2022-11-20T14:38:47;14.03;;;9.33;;
76210;SDS011;65003;49.518;11.280;2022-11-20T14:41:20;13.77;;;9.50;;
76210;SDS011;65003;49.518;11.280;2022-11-20T14:43:46;27.57;;;18.20;;
76210;SDS011;65003;49.518;11.280;2022-11-20T14:46:12;31.97;;;20.10;;
76210;SDS011;65003;49.518;11.280;2022-11-20T14:48:41;16.60;;;11.87;;
76210;SDS011;65003;49.518;11.280;2022-11-20T14:51:09;13.77;;;9.07;;
76210;SDS011;65003;49.518;11.280;2022-11-20T14:53:35;11.93;;;7.83;;